sensor_id;sensor_type;location;lat;lon;timestamp;pressure;altitude;pressure_sealevel;temperature;humidity
51123;BME280;37162;41.724;13.346;2024-01-27T00:01:24;97524.47;;;17.54;71.25
51123;BME280;37162;41.724;13.346;2024-01-27T00:03:50;97526.97;;;17.56;71.27
51123;BME280;37162;41.724;13.346;2024-01-27T00:06:15;97515.66;;;17.47;71.36
51123;BME280;37162;41.724;13.346;2024-01-27T00:08:41;97529.03;;;17.54;71.35
51123;BME280;37162;41.724;13.346;2024-01-27T00:11:06;97535.22;;;17.54;71.12
51123;BME280;37162;41.724;13.346;2024-01-27T00:13:32;97485.25;;;17.22;71.17
51123;BME280;37162;41.724;13.346;2024-01-27T00:15:57;97536.28;;;17.53;71.27
51123;BME280;37162;41.724;13.346;2024-01-27T00:18:22;97535.28;;;17.48;71.29
51123;BME280;37162;41.724;13.346;2024-01-27T00:20:48;97549.72;;;17.53;71.68
51123;BME280;37162;41.724;13.346;2024-01-27T00:23:14;97554.03;;;17.54;72.09
51123;BME280;37162;41.724;13.346;2024-01-27T00:25:39;97534.91;;;17.44;72.31
51123;BME280;37162;41.724;13.346;2024-01-27T00:28:05;97547.25;;;17.52;72.45
51123;BME280;37162;41.724;13.346;2024-01-27T00:30:31;97546.81;;;17.55;72.52
51123;BME280;37162;41.724;13.346;2024-01-27T00:32:56;97531.38;;;17.44;72.43
51123;BME280;37162;41.724;13.346;2024-01-27T00:35:22;97557.53;;;17.55;72.40
51123;BME280;37162;41.724;13.346;2024-01-27T00:37:47;97536.75;;;17.44;72.11
51123;BME280;37162;41.724;13.346;2024-01-27T00:40:13;97555.72;;;17.55;71.83
51123;BME280;37162;41.724;13.346;2024-01-27T00:42:40;97561.09;;;17.55;71.63
51123;BME280;37162;41.724;13.346;2024-01-27T00:45:06;97541.53;;;17.42;71.47
51123;BME280;37162;41.724;13.346;2024-01-27T00:47:32;97573.66;;;17.55;71.34
51123;BME280;37162;41.724;13.346;2024-01-27T00:49:57;97560.47;;;17.53;71.21
51123;BME280;37162;41.724;13.346;2024-01-27T00:52:23;97565.84;;;17.53;71.07
51123;BME280;37162;41.724;13.346;2024-01-27T00:54:48;97562.31;;;17.53;71.32
51123;BME280;37162;41.724;13.346;2024-01-27T00:57:14;97551.59;;;17.53;71.20
51123;BME280;37162;41.724;13.346;2024-01-27T00:59:39;97553.44;;;17.52;71.16
51123;BME280;37162;41.724;13.346;2024-01-27T01:02:06;97542.75;;;17.46;71.20
51123;BME280;37162;41.724;13.346;2024-01-27T01:04:32;97546.22;;;17.53;71.01
51123;BME280;37162;41.724;13.346;2024-01-27T01:06:57;97532.00;;;17.46;71.07
51123;BME280;37162;41.724;13.346;2024-01-27T01:09:23;97539.41;;;17.50;71.06
51123;BME280;37162;41.724;13.346;2024-01-27T01:11:48;97535.88;;;17.50;71.14
51123;BME280;37162;41.724;13.346;2024-01-27T01:14:14;97538.38;;;17.51;71.50
51123;BME280;37162;41.724;13.346;2024-01-27T01:16:40;97524.22;;;17.37;71.81
51123;BME280;37162;41.724;13.346;2024-01-27T01:19:05;97538.41;;;17.45;72.02
51123;BME280;37162;41.724;13.346;2024-01-27T01:21:31;97524.81;;;17.40;72.28
51123;BME280;37162;41.724;13.346;2024-01-27T01:23:57;97544.34;;;17.53;72.30
51123;BME280;37162;41.724;13.346;2024-01-27T01:26:23;97547.25;;;17.52;72.49
51123;BME280;37162;41.724;13.346;2024-01-27T01:28:49;97533.84;;;17.45;72.25
51123;BME280;37162;41.724;13.346;2024-01-27T01:31:15;97540.00;;;17.52;71.87
51123;BME280;37162;41.724;13.346;2024-01-27T01:33:41;97545.38;;;17.52;71.65
51123;BME280;37162;41.724;13.346;2024-01-27T01:36:07;97540.25;;;17.51;71.31
51123;BME280;37162;41.724;13.346;2024-01-27T01:38:32;97541.06;;;17.51;71.19
51123;BME280;37162;41.724;13.346;2024-01-27T01:40:58;97545.63;;;17.51;71.39
51123;BME280;37162;41.724;13.346;2024-01-27T01:43:23;97542.53;;;17.47;71.34
51123;BME280;37162;41.724;13.346;2024-01-27T01:45:48;97545.00;;;17.49;71.17
51123;BME280;37162;41.724;13.346;2024-01-27T01:48:15;97540.88;;;17.46;71.01
51123;BME280;37162;41.724;13.346;2024-01-27T01:50:41;97541.09;;;17.45;70.81
51123;BME280;37162;41.724;13.346;2024-01-27T01:53:07;97540.06;;;17.46;70.82
51123;BME280;37162;41.724;13.346;2024-01-27T01:55:33;97532.44;;;17.43;70.93
51123;BME280;37162;41.724;13.346;2024-01-27T01:57:59;97529.53;;;17.44;70.82
51123;BME280;37162;41.724;13.346;2024-01-27T02:00:25;97523.97;;;17.39;70.73
51123;BME280;37162;41.724;13.346;2024-01-27T02:02:50;97515.53;;;17.35;70.71
51123;BME280;37162;41.724;13.346;2024-01-27T02:05:16;97534.31;;;17.42;70.71
51123;BME280;37162;41.724;13.346;2024-01-27T02:07:41;97524.81;;;17.40;70.96
51123;BME280;37162;41.724;13.346;2024-01-27T02:10:14;97534.31;;;17.42;70.93
51123;BME280;37162;41.724;13.346;2024-01-27T02:12:41;97528.94;;;17.42;71.15
51123;BME280;37162;41.724;13.346;2024-01-27T02:15:10;97523.56;;;17.42;71.31
51123;BME280;37162;41.724;13.346;2024-01-27T02:17:36;97524.38;;;17.43;71.58
51123;BME280;37162;41.724;13.346;2024-01-27T02:20:02;97529.53;;;17.44;71.65
51123;BME280;37162;41.724;13.346;2024-01-27T02:22:28;97523.31;;;17.44;71.65
51123;BME280;37162;41.724;13.346;2024-01-27T02:24:53;97530.56;;;17.43;71.24
51123;BME280;37162;41.724;13.346;2024-01-27T02:27:19;97524.81;;;17.40;71.15
51123;BME280;37162;41.724;13.346;2024-01-27T02:29:44;97522.94;;;17.40;71.30
51123;BME280;37162;41.724;13.346;2024-01-27T02:32:09;97520.88;;;17.42;70.88
51123;BME280;37162;41.724;13.346;2024-01-27T02:34:35;97535.13;;;17.43;70.86
51123;BME280;37162;41.724;13.346;2024-01-27T02:37:00;97533.25;;;17.43;70.99
51123;BME280;37162;41.724;13.346;2024-01-27T02:39:26;97514.34;;;17.31;70.80
51123;BME280;37162;41.724;13.346;2024-01-27T02:41:51;97510.78;;;17.37;70.67
51123;BME280;37162;41.724;13.346;2024-01-27T02:44:17;97525.44;;;17.42;70.68
51123;BME280;37162;41.724;13.346;2024-01-27T02:46:42;97528.94;;;17.42;70.75
51123;BME280;37162;41.724;13.346;2024-01-27T02:49:09;97518.19;;;17.42;70.54
51123;BME280;37162;41.724;13.346;2024-01-27T02:51:34;97517.38;;;17.42;70.72
51123;BME280;37162;41.724;13.346;2024-01-27T02:54:00;97513.63;;;17.43;70.75
51123;BME280;37162;41.724;13.346;2024-01-27T02:56:25;97497.38;;;17.31;70.65
51123;BME280;37162;41.724;13.346;2024-01-27T02:58:51;97511.38;;;17.40;70.60
51123;BME280;37162;41.724;13.346;2024-01-27T03:01:16;97513.00;;;17.41;70.66
51123;BME280;37162;41.724;13.346;2024-01-27T03:03:48;97498.22;;;17.31;70.90
51123;BME280;37162;41.724;13.346;2024-01-27T03:06:13;97511.16;;;17.41;70.96
51123;BME280;37162;41.724;13.346;2024-01-27T03:08:41;97508.50;;;17.41;71.58
51123;BME280;37162;41.724;13.346;2024-01-27T03:11:07;97513.84;;;17.41;71.80
51123;BME280;37162;41.724;13.346;2024-01-27T03:13:32;97516.31;;;17.43;72.00
51123;BME280;37162;41.724;13.346;2024-01-27T03:15:58;97510.94;;;17.43;71.93
51123;BME280;37162;41.724;13.346;2024-01-27T03:18:23;97518.38;;;17.41;71.72
51123;BME280;37162;41.724;13.346;2024-01-27T03:20:50;97518.19;;;17.42;71.32
51123;BME280;37162;41.724;13.346;2024-01-27T03:23:15;97518.19;;;17.42;71.18
51123;BME280;37162;41.724;13.346;2024-01-27T03:25:41;97517.38;;;17.42;71.07
51123;BME280;37162;41.724;13.346;2024-01-27T03:28:06;97521.06;;;17.41;70.85
51123;BME280;37162;41.724;13.346;2024-01-27T03:30:32;97541.53;;;17.42;70.81
51123;BME280;37162;41.724;13.346;2024-01-27T03:32:57;97529.13;;;17.41;70.80
51123;BME280;37162;41.724;13.346;2024-01-27T03:35:22;97535.34;;;17.41;70.94
51123;BME280;37162;41.724;13.346;2024-01-27T03:37:48;97531.81;;;17.41;70.83
51123;BME280;37162;41.724;13.346;2024-01-27T03:40:14;97529.97;;;17.41;70.82
51123;BME280;37162;41.724;13.346;2024-01-27T03:42:39;97535.34;;;17.41;70.77
51123;BME280;37162;41.724;13.346;2024-01-27T03:45:05;97528.31;;;17.40;70.85
51123;BME280;37162;41.724;13.346;2024-01-27T03:47:30;97526.66;;;17.39;70.95
51123;BME280;37162;41.724;13.346;2024-01-27T03:49:56;97523.59;;;17.35;70.75
51123;BME280;37162;41.724;13.346;2024-01-27T03:52:21;97519.31;;;17.28;70.78
51123;BME280;37162;41.724;13.346;2024-01-27T03:54:47;97531.00;;;17.40;71.05
51123;BME280;37162;41.724;13.346;2024-01-27T03:57:12;97511.03;;;17.29;71.33
51123;BME280;37162;41.724;13.346;2024-01-27T03:59:40;97532.66;;;17.41;71.76
51123;BME280;37162;41.724;13.346;2024-01-27T04:02:06;97538.03;;;17.41;71.83
51123;BME280;37162;41.724;13.346;2024-01-27T04:04:32;97538.84;;;17.42;72.03
51123;BME280;37162;41.724;13.346;2024-01-27T04:06:57;97536.16;;;17.42;72.21
51123;BME280;37162;41.724;13.346;2024-01-27T04:09:23;97537.81;;;17.43;72.25
51123;BME280;37162;41.724;13.346;2024-01-27T04:11:49;97539.66;;;17.42;71.97
51123;BME280;37162;41.724;13.346;2024-01-27T04:14:14;97545.03;;;17.42;71.71
51123;BME280;37162;41.724;13.346;2024-01-27T04:16:40;97541.72;;;17.40;71.26
51123;BME280;37162;41.724;13.346;2024-01-27T04:19:05;97539.66;;;17.42;71.15
51123;BME280;37162;41.724;13.346;2024-01-27T04:21:30;97540.72;;;17.41;70.91
51123;BME280;37162;41.724;13.346;2024-01-27T04:23:56;97536.16;;;17.42;70.84
51123;BME280;37162;41.724;13.346;2024-01-27T04:26:21;97538.84;;;17.42;70.93
51123;BME280;37162;41.724;13.346;2024-01-27T04:28:47;97536.38;;;17.40;70.71
51123;BME280;37162;41.724;13.346;2024-01-27T04:31:12;97550.63;;;17.41;70.89
51123;BME280;37162;41.724;13.346;2024-01-27T04:33:38;97534.72;;;17.39;70.91
51123;BME280;37162;41.724;13.346;2024-01-27T04:36:03;97532.03;;;17.39;70.73
51123;BME280;37162;41.724;13.346;2024-01-27T04:38:32;97535.53;;;17.40;70.83
51123;BME280;37162;41.724;13.346;2024-01-27T04:40:57;97529.19;;;17.34;70.80
51123;BME280;37162;41.724;13.346;2024-01-27T04:43:23;97530.88;;;17.28;70.45
51123;BME280;37162;41.724;13.346;2024-01-27T04:45:48;97537.00;;;17.35;70.70
51123;BME280;37162;41.724;13.346;2024-01-27T04:48:15;97539.69;;;17.35;70.65
51123;BME280;37162;41.724;13.346;2024-01-27T04:50:40;97546.75;;;17.36;70.58
51123;BME280;37162;41.724;13.346;2024-01-27T04:53:06;97553.94;;;17.36;70.64
51123;BME280;37162;41.724;13.346;2024-01-27T04:55:32;97547.56;;;17.37;70.77
51123;BME280;37162;41.724;13.346;2024-01-27T04:57:57;97546.56;;;17.31;70.94
51123;BME280;37162;41.724;13.346;2024-01-27T05:00:24;97553.19;;;17.29;71.15
51123;BME280;37162;41.724;13.346;2024-01-27T05:02:52;97558.50;;;17.35;71.16
51123;BME280;37162;41.724;13.346;2024-01-27T05:05:17;97570.50;;;17.33;71.23
51123;BME280;37162;41.724;13.346;2024-01-27T05:07:43;97575.25;;;17.37;70.92
51123;BME280;37162;41.724;13.346;2024-01-27T05:10:11;97570.91;;;17.36;70.88
51123;BME280;37162;41.724;13.346;2024-01-27T05:12:38;97576.28;;;17.36;71.04
51123;BME280;37162;41.724;13.346;2024-01-27T05:15:04;97576.94;;;17.32;70.99
51123;BME280;37162;41.724;13.346;2024-01-27T05:17:30;97577.31;;;17.35;70.98
51123;BME280;37162;41.724;13.346;2024-01-27T05:19:57;97570.34;;;17.28;70.84
51123;BME280;37162;41.724;13.346;2024-01-27T05:22:23;97576.47;;;17.35;71.08
51123;BME280;37162;41.724;13.346;2024-01-27T05:24:48;97578.34;;;17.34;71.18
51123;BME280;37162;41.724;13.346;2024-01-27T05:27:14;97582.91;;;17.34;71.15
51123;BME280;37162;41.724;13.346;2024-01-27T05:29:39;97589.31;;;17.33;71.00
51123;BME280;37162;41.724;13.346;2024-01-27T05:32:05;97583.13;;;17.32;70.61
51123;BME280;37162;41.724;13.346;2024-01-27T05:34:30;97587.66;;;17.32;70.74
51123;BME280;37162;41.724;13.346;2024-01-27T05:36:56;97579.22;;;17.28;70.67
51123;BME280;37162;41.724;13.346;2024-01-27T05:39:21;97594.06;;;17.31;70.68
51123;BME280;37162;41.724;13.346;2024-01-27T05:41:46;97587.66;;;17.32;70.75
51123;BME280;37162;41.724;13.346;2024-01-27T05:44:12;97587.66;;;17.32;70.55
51123;BME280;37162;41.724;13.346;2024-01-27T05:46:37;97590.34;;;17.32;70.63
51123;BME280;37162;41.724;13.346;2024-01-27T05:49:03;97592.00;;;17.33;70.85
51123;BME280;37162;41.724;13.346;2024-01-27T05:51:29;97593.88;;;17.32;70.89
51123;BME280;37162;41.724;13.346;2024-01-27T05:53:59;97588.72;;;17.24;71.13
51123;BME280;37162;41.724;13.346;2024-01-27T05:56:24;97597.38;;;17.26;71.32
51123;BME280;37162;41.724;13.346;2024-01-27T05:58:49;97588.97;;;17.23;71.37
51123;BME280;37162;41.724;13.346;2024-01-27T06:01:17;97605.44;;;17.33;71.58
51123;BME280;37162;41.724;13.346;2024-01-27T06:03:44;97606.25;;;17.33;71.34
51123;BME280;37162;41.724;13.346;2024-01-27T06:06:09;97608.13;;;17.33;70.96
51123;BME280;37162;41.724;13.346;2024-01-27T06:08:35;97615.34;;;17.32;70.79
51123;BME280;37162;41.724;13.346;2024-01-27T06:11:01;97620.72;;;17.32;70.82
51123;BME280;37162;41.724;13.346;2024-01-27T06:13:26;97612.84;;;17.31;70.63
51123;BME280;37162;41.724;13.346;2024-01-27T06:15:52;97607.50;;;17.31;70.84
51123;BME280;37162;41.724;13.346;2024-01-27T06:18:17;97601.13;;;17.25;70.67
51123;BME280;37162;41.724;13.346;2024-01-27T06:20:44;97611.47;;;17.22;70.66
51123;BME280;37162;41.724;13.346;2024-01-27T06:23:09;97623.81;;;17.29;70.73
51123;BME280;37162;41.724;13.346;2024-01-27T06:25:34;97624.88;;;17.28;70.67
51123;BME280;37162;41.724;13.346;2024-01-27T06:28:00;97609.81;;;17.21;70.77
51123;BME280;37162;41.724;13.346;2024-01-27T06:30:26;97611.69;;;17.20;70.61
51123;BME280;37162;41.724;13.346;2024-01-27T06:32:51;97611.50;;;17.15;70.46
51123;BME280;37162;41.724;13.346;2024-01-27T06:35:17;97633.16;;;17.27;70.71
51123;BME280;37162;41.724;13.346;2024-01-27T06:37:42;97634.16;;;17.26;70.56
51123;BME280;37162;41.724;13.346;2024-01-27T06:40:08;97642.22;;;17.26;70.72
51123;BME280;37162;41.724;13.346;2024-01-27T06:42:36;97640.34;;;17.26;70.71
51123;BME280;37162;41.724;13.346;2024-01-27T06:45:02;97638.72;;;17.25;70.42
51123;BME280;37162;41.724;13.346;2024-01-27T06:47:29;97637.50;;;17.21;70.66
51123;BME280;37162;41.724;13.346;2024-01-27T06:49:54;97629.66;;;17.20;70.48
51123;BME280;37162;41.724;13.346;2024-01-27T06:52:20;97637.91;;;17.25;70.63
51123;BME280;37162;41.724;13.346;2024-01-27T06:54:45;97629.66;;;17.20;70.71
51123;BME280;37162;41.724;13.346;2024-01-27T06:57:21;97638.94;;;17.24;70.61
51123;BME280;37162;41.724;13.346;2024-01-27T06:59:51;97638.13;;;17.23;70.98
51123;BME280;37162;41.724;13.346;2024-01-27T07:02:27;97624.91;;;17.15;70.70
51123;BME280;37162;41.724;13.346;2024-01-27T07:04:53;97628.84;;;17.19;70.73
51123;BME280;37162;41.724;13.346;2024-01-27T07:07:22;97632.75;;;17.23;70.64
51123;BME280;37162;41.724;13.346;2024-01-27T07:09:49;97638.13;;;17.23;70.71
51123;BME280;37162;41.724;13.346;2024-01-27T07:12:14;97622.47;;;17.14;70.40
51123;BME280;37162;41.724;13.346;2024-01-27T07:14:40;97638.13;;;17.23;70.52
51123;BME280;37162;41.724;13.346;2024-01-27T07:17:05;97645.94;;;17.25;70.43
51123;BME280;37162;41.724;13.346;2024-01-27T07:19:31;97644.91;;;17.26;70.34
51123;BME280;37162;41.724;13.346;2024-01-27T07:21:57;97644.91;;;17.26;70.51
51123;BME280;37162;41.724;13.346;2024-01-27T07:24:22;97640.16;;;17.28;70.43
51123;BME280;37162;41.724;13.346;2024-01-27T07:26:48;97635.22;;;17.25;70.36
51123;BME280;37162;41.724;13.346;2024-01-27T07:29:13;97644.50;;;17.29;70.31
51123;BME280;37162;41.724;13.346;2024-01-27T07:31:39;97644.28;;;17.30;70.41
51123;BME280;37162;41.724;13.346;2024-01-27T07:34:05;97628.63;;;17.21;70.37
51123;BME280;37162;41.724;13.346;2024-01-27T07:36:32;97646.75;;;17.32;70.39
51123;BME280;37162;41.724;13.346;2024-01-27T07:38:58;97638.06;;;17.30;70.24
51123;BME280;37162;41.724;13.346;2024-01-27T07:41:23;97649.22;;;17.33;70.14
51123;BME280;37162;41.724;13.346;2024-01-27T07:43:49;97640.75;;;17.36;70.15
51123;BME280;37162;41.724;13.346;2024-01-27T07:46:14;97653.97;;;17.38;70.13
51123;BME280;37162;41.724;13.346;2024-01-27T07:48:40;97653.72;;;17.40;70.21
51123;BME280;37162;41.724;13.346;2024-01-27T07:51:06;97657.88;;;17.42;69.92
51123;BME280;37162;41.724;13.346;2024-01-27T07:53:32;97664.88;;;17.43;70.06
51123;BME280;37162;41.724;13.346;2024-01-27T07:55:58;97662.78;;;17.45;69.51
51123;BME280;37162;41.724;13.346;2024-01-27T07:58:23;97658.69;;;17.43;68.93
51123;BME280;37162;41.724;13.346;2024-01-27T08:00:49;97663.19;;;17.49;67.94
51123;BME280;37162;41.724;13.346;2024-01-27T08:03:14;97672.72;;;17.51;67.59
51123;BME280;37162;41.724;13.346;2024-01-27T08:05:39;97670.63;;;17.53;67.27
51123;BME280;37162;41.724;13.346;2024-01-27T08:08:06;97684.69;;;17.55;67.32
51123;BME280;37162;41.724;13.346;2024-01-27T08:10:31;97680.13;;;17.56;67.39
51123;BME280;37162;41.724;13.346;2024-01-27T08:12:56;97663.38;;;17.54;67.33
51123;BME280;37162;41.724;13.346;2024-01-27T08:15:22;97678.44;;;17.61;67.61
51123;BME280;37162;41.724;13.346;2024-01-27T08:17:47;97676.34;;;17.63;67.60
51123;BME280;37162;41.724;13.346;2024-01-27T08:20:13;97680.47;;;17.66;67.72
51123;BME280;37162;41.724;13.346;2024-01-27T08:22:39;97688.94;;;17.70;68.13
51123;BME280;37162;41.724;13.346;2024-01-27T08:25:05;97670.72;;;17.72;68.54
51123;BME280;37162;41.724;13.346;2024-01-27T08:27:31;97677.59;;;17.74;68.68
51123;BME280;37162;41.724;13.346;2024-01-27T08:29:56;97682.50;;;17.77;68.72
51123;BME280;37162;41.724;13.346;2024-01-27T08:32:22;97686.66;;;17.80;69.05
51123;BME280;37162;41.724;13.346;2024-01-27T08:34:47;97705.00;;;17.83;69.01
51123;BME280;37162;41.724;13.346;2024-01-27T08:37:18;97712.66;;;17.86;69.01
51123;BME280;37162;41.724;13.346;2024-01-27T08:39:44;97707.50;;;17.84;68.17
51123;BME280;37162;41.724;13.346;2024-01-27T08:42:10;97711.19;;;17.90;68.23
51123;BME280;37162;41.724;13.346;2024-01-27T08:44:35;97716.16;;;17.93;68.02
51123;BME280;37162;41.724;13.346;2024-01-27T08:47:00;97719.44;;;17.95;68.10
51123;BME280;37162;41.724;13.346;2024-01-27T08:49:26;97710.13;;;17.91;67.82
51123;BME280;37162;41.724;13.346;2024-01-27T08:51:55;97725.81;;;18.01;67.68
51123;BME280;37162;41.724;13.346;2024-01-27T08:54:20;97721.06;;;17.96;67.70
51123;BME280;37162;41.724;13.346;2024-01-27T08:56:46;97731.81;;;18.03;67.70
51123;BME280;37162;41.724;13.346;2024-01-27T08:59:11;97733.03;;;18.07;67.58
51123;BME280;37162;41.724;13.346;2024-01-27T09:01:37;97739.81;;;18.09;67.61
51123;BME280;37162;41.724;13.346;2024-01-27T09:04:02;97741.47;;;18.10;67.48
51123;BME280;37162;41.724;13.346;2024-01-27T09:06:28;97734.84;;;18.13;67.71
51123;BME280;37162;41.724;13.346;2024-01-27T09:08:53;97739.59;;;18.11;67.72
51123;BME280;37162;41.724;13.346;2024-01-27T09:11:18;97736.53;;;18.07;67.70
51123;BME280;37162;41.724;13.346;2024-01-27T09:13:44;97754.25;;;18.22;67.81
51123;BME280;37162;41.724;13.346;2024-01-27T09:16:10;97746.19;;;18.15;67.75
51123;BME280;37162;41.724;13.346;2024-01-27T09:18:38;97761.84;;;18.25;67.62
51123;BME280;37162;41.724;13.346;2024-01-27T09:21:04;97767.88;;;18.27;67.47
51123;BME280;37162;41.724;13.346;2024-01-27T09:23:29;97765.75;;;18.29;67.35
51123;BME280;37162;41.724;13.346;2024-01-27T09:25:55;97752.38;;;18.22;67.27
51123;BME280;37162;41.724;13.346;2024-01-27T09:28:20;97764.34;;;18.26;67.37
51123;BME280;37162;41.724;13.346;2024-01-27T09:30:45;97773.81;;;18.35;67.25
51123;BME280;37162;41.724;13.346;2024-01-27T09:33:12;97777.09;;;18.37;67.19
51123;BME280;37162;41.724;13.346;2024-01-27T09:35:37;97765.34;;;18.32;66.99
51123;BME280;37162;41.724;13.346;2024-01-27T09:38:03;97763.88;;;18.36;66.89
51123;BME280;37162;41.724;13.346;2024-01-27T09:40:29;97764.44;;;18.45;66.79
51123;BME280;37162;41.724;13.346;2024-01-27T09:42:58;97750.84;;;18.33;66.96
51123;BME280;37162;41.724;13.346;2024-01-27T09:45:24;97762.13;;;18.48;67.15
51123;BME280;37162;41.724;13.346;2024-01-27T09:47:51;97774.91;;;18.53;67.29
51123;BME280;37162;41.724;13.346;2024-01-27T09:50:17;97765.81;;;18.54;67.36
51123;BME280;37162;41.724;13.346;2024-01-27T09:52:44;97776.13;;;18.57;67.34
51123;BME280;37162;41.724;13.346;2024-01-27T09:55:09;97773.25;;;18.58;67.25
51123;BME280;37162;41.724;13.346;2024-01-27T09:57:38;97756.31;;;18.51;67.07
51123;BME280;37162;41.724;13.346;2024-01-27T10:00:06;97769.88;;;18.63;67.43
51123;BME280;37162;41.724;13.346;2024-01-27T10:02:42;97763.50;;;18.57;67.83
51123;BME280;37162;41.724;13.346;2024-01-27T10:05:11;97773.78;;;18.67;68.24
51123;BME280;37162;41.724;13.346;2024-01-27T10:07:38;97774.59;;;18.68;68.34
51123;BME280;37162;41.724;13.346;2024-01-27T10:10:05;97763.66;;;18.69;68.17
51123;BME280;37162;41.724;13.346;2024-01-27T10:12:31;97754.09;;;18.67;68.56
51123;BME280;37162;41.724;13.346;2024-01-27T10:14:57;97765.06;;;18.72;68.69
51123;BME280;37162;41.724;13.346;2024-01-27T10:17:24;97747.91;;;18.66;68.78
51123;BME280;37162;41.724;13.346;2024-01-27T10:20:04;97744.16;;;18.67;68.80
51123;BME280;37162;41.724;13.346;2024-01-27T10:22:48;97750.59;;;18.73;68.75
51123;BME280;37162;41.724;13.346;2024-01-27T10:25:14;97753.44;;;18.78;68.72
51123;BME280;37162;41.724;13.346;2024-01-27T10:27:39;97742.44;;;18.79;68.36
51123;BME280;37162;41.724;13.346;2024-01-27T10:30:07;97729.66;;;18.75;68.61
51123;BME280;37162;41.724;13.346;2024-01-27T10:32:39;97742.59;;;18.84;68.04
51123;BME280;37162;41.724;13.346;2024-01-27T10:35:06;97740.50;;;18.86;68.04
51123;BME280;37162;41.724;13.346;2024-01-27T10:37:35;97732.44;;;18.86;67.86
51123;BME280;37162;41.724;13.346;2024-01-27T10:40:07;97731.75;;;18.91;67.76
51123;BME280;37162;41.724;13.346;2024-01-27T10:42:34;97732.38;;;18.93;67.42
51123;BME280;37162;41.724;13.346;2024-01-27T10:45:00;97716.88;;;18.88;67.28
51123;BME280;37162;41.724;13.346;2024-01-27T10:47:27;97727.16;;;18.98;67.46
51123;BME280;37162;41.724;13.346;2024-01-27T10:49:58;97734.78;;;19.01;67.16
51123;BME280;37162;41.724;13.346;2024-01-27T10:52:28;97713.75;;;18.92;67.02
51123;BME280;37162;41.724;13.346;2024-01-27T10:55:04;97736.22;;;19.04;66.87
51123;BME280;37162;41.724;13.346;2024-01-27T10:57:36;97718.69;;;18.95;66.93
51123;BME280;37162;41.724;13.346;2024-01-27T11:00:04;97734.72;;;19.08;66.77
51123;BME280;37162;41.724;13.346;2024-01-27T11:02:33;97733.47;;;19.10;66.68
51123;BME280;37162;41.724;13.346;2024-01-27T11:05:03;97730.31;;;19.13;66.66
51123;BME280;37162;41.724;13.346;2024-01-27T11:07:31;97726.34;;;19.16;66.49
51123;BME280;37162;41.724;13.346;2024-01-27T11:09:57;97714.81;;;19.09;66.22
51123;BME280;37162;41.724;13.346;2024-01-27T11:12:23;97729.63;;;19.18;66.17
51123;BME280;37162;41.724;13.346;2024-01-27T11:14:51;97717.06;;;19.12;66.16
51123;BME280;37162;41.724;13.346;2024-01-27T11:17:17;97690.03;;;19.00;66.01
51123;BME280;37162;41.724;13.346;2024-01-27T11:19:45;97721.13;;;19.21;65.96
51123;BME280;37162;41.724;13.346;2024-01-27T11:22:24;97720.06;;;19.22;65.95
51123;BME280;37162;41.724;13.346;2024-01-27T11:25:36;97710.94;;;19.23;65.69
51123;BME280;37162;41.724;13.346;2024-01-27T11:27:38;97708.22;;;19.23;65.71
51123;BME280;37162;41.724;13.346;2024-01-27T11:30:04;97700.00;;;19.18;65.77
51123;BME280;37162;41.724;13.346;2024-01-27T11:32:30;97701.78;;;19.24;65.64
51123;BME280;37162;41.724;13.346;2024-01-27T11:34:56;97705.34;;;19.25;65.51
51123;BME280;37162;41.724;13.346;2024-01-27T11:37:22;97704.28;;;19.26;65.48
51123;BME280;37162;41.724;13.346;2024-01-27T11:39:51;97693.50;;;19.26;65.38
51123;BME280;37162;41.724;13.346;2024-01-27T11:42:19;97685.41;;;19.26;65.24
51123;BME280;37162;41.724;13.346;2024-01-27T11:44:45;97685.19;;;19.27;65.34
51123;BME280;37162;41.724;13.346;2024-01-27T11:47:18;97693.03;;;19.29;65.31
51123;BME280;37162;41.724;13.346;2024-01-27T11:49:50;97683.31;;;19.28;65.13
51123;BME280;37162;41.724;13.346;2024-01-27T11:52:18;97684.75;;;19.30;64.97
51123;BME280;37162;41.724;13.346;2024-01-27T11:54:44;97675.31;;;19.21;64.91
51123;BME280;37162;41.724;13.346;2024-01-27T11:57:09;97683.41;;;19.21;65.21
51123;BME280;37162;41.724;13.346;2024-01-27T11:59:34;97688.69;;;19.28;65.15
51123;BME280;37162;41.724;13.346;2024-01-27T12:02:01;97674.13;;;19.17;65.05
51123;BME280;37162;41.724;13.346;2024-01-27T12:04:27;97684.38;;;19.27;65.05
51123;BME280;37162;41.724;13.346;2024-01-27T12:06:53;97680.72;;;19.21;65.00
51123;BME280;37162;41.724;13.346;2024-01-27T12:09:19;97684.47;;;19.20;64.87
51123;BME280;37162;41.724;13.346;2024-01-27T12:11:45;97687.28;;;19.25;64.76
51123;BME280;37162;41.724;13.346;2024-01-27T12:14:11;97690.19;;;19.24;64.74
51123;BME280;37162;41.724;13.346;2024-01-27T12:16:37;97687.97;;;19.21;64.64
51123;BME280;37162;41.724;13.346;2024-01-27T12:19:03;97687.16;;;19.20;64.77
51123;BME280;37162;41.724;13.346;2024-01-27T12:21:28;97666.56;;;19.07;64.64
51123;BME280;37162;41.724;13.346;2024-01-27T12:23:55;97684.31;;;19.15;64.63
51123;BME280;37162;41.724;13.346;2024-01-27T12:26:22;97687.22;;;19.13;64.52
51123;BME280;37162;41.724;13.346;2024-01-27T12:28:48;97663.34;;;18.99;64.51
51123;BME280;37162;41.724;13.346;2024-01-27T12:31:15;97678.97;;;19.08;64.74
51123;BME280;37162;41.724;13.346;2024-01-27T12:33:51;97680.25;;;19.06;64.57
51123;BME280;37162;41.724;13.346;2024-01-27T12:36:20;97682.34;;;19.04;64.46
51123;BME280;37162;41.724;13.346;2024-01-27T12:38:54;97673.88;;;19.00;64.54
51123;BME280;37162;41.724;13.346;2024-01-27T12:41:20;97667.38;;;18.89;64.55
51123;BME280;37162;41.724;13.346;2024-01-27T12:43:45;97674.78;;;18.94;64.52
51123;BME280;37162;41.724;13.346;2024-01-27T12:46:11;97674.41;;;18.90;64.32